San Diego, California
Traffic Map
Current Weather Conditions
San Diego, California
Scattered Clouds
Scattered Clouds
80°
Feels Like: 81°
Wind Chill: 80° Ceiling: Unl
Heat Index: 81° Visibility: 10mi
Dew Point: 63° Wind: 8mph
Humidity: 56% Direction: 280° (W)
Pressure: 30.07in Gusts: 0mph
Raw Report DataKSAN 281751Z 28007KT 10SM FEW010 SCT140 SCT220 27/17 A3007 RMK AO2 SLP184 T02670172 10272 20217 51006 $
Traffic Incident Summary
Active as of:
Severity:
Category:
InformationThere was an issue retrieving the traffic information for this location. Please try a different location or try again shortly.
Advertisements
Track Severe Weather on mobile